sensor_id;sensor_type;location;lat;lon;timestamp;temperature;humidity
38995;DHT22;24769;18.712;99.000;2023-04-24T00:02:25;23.80;99.90
38995;DHT22;24769;18.712;99.000;2023-04-24T00:04:52;24.00;99.90
38995;DHT22;24769;18.712;99.000;2023-04-24T00:07:18;24.20;99.90
38995;DHT22;24769;18.712;99.000;2023-04-24T00:09:46;24.20;99.90
38995;DHT22;24769;18.712;99.000;2023-04-24T00:12:12;24.30;99.90
38995;DHT22;24769;18.712;99.000;2023-04-24T00:14:39;24.50;99.90
38995;DHT22;24769;18.712;99.000;2023-04-24T00:17:06;24.70;99.90
38995;DHT22;24769;18.712;99.000;2023-04-24T00:19:32;24.80;99.90
38995;DHT22;24769;18.712;99.000;2023-04-24T00:21:59;25.50;99.90
38995;DHT22;24769;18.712;99.000;2023-04-24T00:24:25;25.90;90.90
38995;DHT22;24769;18.712;99.000;2023-04-24T00:26:52;26.10;88.60
38995;DHT22;24769;18.712;99.000;2023-04-24T00:29:18;26.40;85.00
38995;DHT22;24769;18.712;99.000;2023-04-24T00:31:45;26.40;81.40
38995;DHT22;24769;18.712;99.000;2023-04-24T00:34:12;26.50;81.70
38995;DHT22;24769;18.712;99.000;2023-04-24T00:36:38;27.00;80.10
38995;DHT22;24769;18.712;99.000;2023-04-24T00:39:05;27.20;77.10
38995;DHT22;24769;18.712;99.000;2023-04-24T00:41:34;27.10;73.10
38995;DHT22;24769;18.712;99.000;2023-04-24T00:44:01;27.10;70.80
38995;DHT22;24769;18.712;99.000;2023-04-24T00:46:28;27.20;68.90
38995;DHT22;24769;18.712;99.000;2023-04-24T00:48:56;27.60;70.30
38995;DHT22;24769;18.712;99.000;2023-04-24T00:51:23;28.00;65.70
38995;DHT22;24769;18.712;99.000;2023-04-24T00:53:50;27.70;58.70
38995;DHT22;24769;18.712;99.000;2023-04-24T00:56:18;27.90;58.80
38995;DHT22;24769;18.712;99.000;2023-04-24T00:58:46;28.20;57.70
38995;DHT22;24769;18.712;99.000;2023-04-24T01:01:13;28.00;56.70
38995;DHT22;24769;18.712;99.000;2023-04-24T01:03:40;28.10;57.60
38995;DHT22;24769;18.712;99.000;2023-04-24T01:06:07;28.60;55.60
38995;DHT22;24769;18.712;99.000;2023-04-24T01:08:35;28.20;53.70
38995;DHT22;24769;18.712;99.000;2023-04-24T01:11:03;28.70;51.30
38995;DHT22;24769;18.712;99.000;2023-04-24T01:13:32;29.00;52.20
38995;DHT22;24769;18.712;99.000;2023-04-24T01:15:59;29.30;49.10
38995;DHT22;24769;18.712;99.000;2023-04-24T01:18:27;29.00;48.90
38995;DHT22;24769;18.712;99.000;2023-04-24T01:20:57;29.40;48.40
38995;DHT22;24769;18.712;99.000;2023-04-24T01:23:24;29.60;45.80
38995;DHT22;24769;18.712;99.000;2023-04-24T01:25:51;29.40;43.90
38995;DHT22;24769;18.712;99.000;2023-04-24T01:28:18;29.60;46.00
38995;DHT22;24769;18.712;99.000;2023-04-24T01:30:45;30.10;44.50
38995;DHT22;24769;18.712;99.000;2023-04-24T01:33:12;29.90;43.50
38995;DHT22;24769;18.712;99.000;2023-04-24T01:35:39;29.70;44.70
38995;DHT22;24769;18.712;99.000;2023-04-24T01:38:06;30.00;44.10
38995;DHT22;24769;18.712;99.000;2023-04-24T01:40:32;30.00;45.80
38995;DHT22;24769;18.712;99.000;2023-04-24T01:42:59;30.10;43.40
38995;DHT22;24769;18.712;99.000;2023-04-24T01:45:26;30.20;40.80
38995;DHT22;24769;18.712;99.000;2023-04-24T01:47:52;30.10;42.00
38995;DHT22;24769;18.712;99.000;2023-04-24T01:50:19;30.30;41.70
38995;DHT22;24769;18.712;99.000;2023-04-24T01:52:46;30.10;43.00
38995;DHT22;24769;18.712;99.000;2023-04-24T01:55:12;30.10;42.70
38995;DHT22;24769;18.712;99.000;2023-04-24T01:57:39;30.00;41.70
38995;DHT22;24769;18.712;99.000;2023-04-24T02:00:06;30.40;41.70
38995;DHT22;24769;18.712;99.000;2023-04-24T02:02:34;30.70;39.80
38995;DHT22;24769;18.712;99.000;2023-04-24T02:05:00;30.50;40.00
38995;DHT22;24769;18.712;99.000;2023-04-24T02:07:27;30.70;40.00
38995;DHT22;24769;18.712;99.000;2023-04-24T02:09:53;30.70;40.40
38995;DHT22;24769;18.712;99.000;2023-04-24T02:12:21;31.00;39.60
38995;DHT22;24769;18.712;99.000;2023-04-24T02:14:47;30.70;37.30
38995;DHT22;24769;18.712;99.000;2023-04-24T02:17:14;31.10;38.70
38995;DHT22;24769;18.712;99.000;2023-04-24T02:19:42;31.50;36.80
38995;DHT22;24769;18.712;99.000;2023-04-24T02:22:08;31.50;36.30
38995;DHT22;24769;18.712;99.000;2023-04-24T02:24:37;31.00;34.80
38995;DHT22;24769;18.712;99.000;2023-04-24T02:27:04;30.20;36.60
38995;DHT22;24769;18.712;99.000;2023-04-24T02:29:31;31.10;36.20
38995;DHT22;24769;18.712;99.000;2023-04-24T02:31:57;31.60;34.60
38995;DHT22;24769;18.712;99.000;2023-04-24T02:34:24;32.00;33.20
38995;DHT22;24769;18.712;99.000;2023-04-24T02:36:50;31.60;31.20
38995;DHT22;24769;18.712;99.000;2023-04-24T02:39:19;31.60;31.40
38995;DHT22;24769;18.712;99.000;2023-04-24T02:41:46;31.70;33.50
38995;DHT22;24769;18.712;99.000;2023-04-24T02:44:12;31.70;31.40
38995;DHT22;24769;18.712;99.000;2023-04-24T02:46:39;31.80;30.20
38995;DHT22;24769;18.712;99.000;2023-04-24T02:49:07;32.00;30.60
38995;DHT22;24769;18.712;99.000;2023-04-24T02:51:33;32.40;30.40
38995;DHT22;24769;18.712;99.000;2023-04-24T02:54:00;32.80;29.70
38995;DHT22;24769;18.712;99.000;2023-04-24T02:56:26;32.60;27.10
38995;DHT22;24769;18.712;99.000;2023-04-24T02:58:53;32.10;26.00
38995;DHT22;24769;18.712;99.000;2023-04-24T03:01:19;32.20;26.40
38995;DHT22;24769;18.712;99.000;2023-04-24T03:03:46;32.40;26.50
38995;DHT22;24769;18.712;99.000;2023-04-24T03:06:13;32.20;23.10
38995;DHT22;24769;18.712;99.000;2023-04-24T03:08:39;32.10;24.60
38995;DHT22;24769;18.712;99.000;2023-04-24T03:11:06;32.70;26.00
38995;DHT22;24769;18.712;99.000;2023-04-24T03:13:32;32.60;23.50
38995;DHT22;24769;18.712;99.000;2023-04-24T03:15:59;32.90;21.90
38995;DHT22;24769;18.712;99.000;2023-04-24T03:18:25;32.70;22.50
38995;DHT22;24769;18.712;99.000;2023-04-24T03:20:52;32.80;19.80
38995;DHT22;24769;18.712;99.000;2023-04-24T03:23:18;32.80;21.30
38995;DHT22;24769;18.712;99.000;2023-04-24T03:25:45;32.90;21.40
38995;DHT22;24769;18.712;99.000;2023-04-24T03:28:11;33.00;22.00
38995;DHT22;24769;18.712;99.000;2023-04-24T03:30:38;33.30;20.90
38995;DHT22;24769;18.712;99.000;2023-04-24T03:33:04;33.30;19.30
38995;DHT22;24769;18.712;99.000;2023-04-24T03:35:31;33.30;22.00
38995;DHT22;24769;18.712;99.000;2023-04-24T03:37:58;33.70;19.20
38995;DHT22;24769;18.712;99.000;2023-04-24T03:40:24;33.50;20.30
38995;DHT22;24769;18.712;99.000;2023-04-24T03:42:51;33.60;20.50
38995;DHT22;24769;18.712;99.000;2023-04-24T03:45:17;33.50;19.20
38995;DHT22;24769;18.712;99.000;2023-04-24T03:47:44;33.40;19.20
38995;DHT22;24769;18.712;99.000;2023-04-24T03:50:10;33.40;17.20
38995;DHT22;24769;18.712;99.000;2023-04-24T03:52:37;33.30;17.20
38995;DHT22;24769;18.712;99.000;2023-04-24T03:55:06;33.80;18.00
38995;DHT22;24769;18.712;99.000;2023-04-24T03:57:33;34.20;17.80
38995;DHT22;24769;18.712;99.000;2023-04-24T03:59:59;34.40;18.90
38995;DHT22;24769;18.712;99.000;2023-04-24T04:02:26;34.30;16.30
38995;DHT22;24769;18.712;99.000;2023-04-24T04:04:52;34.20;17.40
38995;DHT22;24769;18.712;99.000;2023-04-24T04:07:19;34.20;17.10
38995;DHT22;24769;18.712;99.000;2023-04-24T04:09:45;34.20;16.50
38995;DHT22;24769;18.712;99.000;2023-04-24T04:12:12;34.30;15.20
38995;DHT22;24769;18.712;99.000;2023-04-24T04:14:38;34.60;16.50
38995;DHT22;24769;18.712;99.000;2023-04-24T04:17:05;34.40;16.70
38995;DHT22;24769;18.712;99.000;2023-04-24T04:19:31;34.10;16.20
38995;DHT22;24769;18.712;99.000;2023-04-24T04:21:58;34.20;16.60
38995;DHT22;24769;18.712;99.000;2023-04-24T04:24:25;35.00;17.40
38995;DHT22;24769;18.712;99.000;2023-04-24T04:26:52;34.60;17.50
38995;DHT22;24769;18.712;99.000;2023-04-24T04:29:22;34.30;16.50
38995;DHT22;24769;18.712;99.000;2023-04-24T04:31:50;34.90;14.90
38995;DHT22;24769;18.712;99.000;2023-04-24T04:34:16;34.70;16.90
38995;DHT22;24769;18.712;99.000;2023-04-24T04:36:43;35.10;15.60
38995;DHT22;24769;18.712;99.000;2023-04-24T04:39:10;35.10;14.20
38995;DHT22;24769;18.712;99.000;2023-04-24T04:41:36;35.10;13.50
38995;DHT22;24769;18.712;99.000;2023-04-24T04:44:03;34.90;13.60
38995;DHT22;24769;18.712;99.000;2023-04-24T04:46:31;35.40;14.20
38995;DHT22;24769;18.712;99.000;2023-04-24T04:49:00;35.30;13.30
38995;DHT22;24769;18.712;99.000;2023-04-24T04:51:27;35.40;13.20
38995;DHT22;24769;18.712;99.000;2023-04-24T04:53:54;35.50;13.30
38995;DHT22;24769;18.712;99.000;2023-04-24T04:56:20;35.60;13.30
38995;DHT22;24769;18.712;99.000;2023-04-24T04:58:48;35.80;12.90
38995;DHT22;24769;18.712;99.000;2023-04-24T05:01:15;35.70;12.10
38995;DHT22;24769;18.712;99.000;2023-04-24T05:03:42;35.70;11.80
38995;DHT22;24769;18.712;99.000;2023-04-24T05:06:08;35.20;12.40
38995;DHT22;24769;18.712;99.000;2023-04-24T05:08:35;35.00;12.80
38995;DHT22;24769;18.712;99.000;2023-04-24T05:11:02;35.30;12.70
38995;DHT22;24769;18.712;99.000;2023-04-24T05:13:28;35.50;12.40
38995;DHT22;24769;18.712;99.000;2023-04-24T05:15:55;35.50;12.70
38995;DHT22;24769;18.712;99.000;2023-04-24T05:18:22;35.70;12.30
38995;DHT22;24769;18.712;99.000;2023-04-24T05:20:48;35.80;11.70
38995;DHT22;24769;18.712;99.000;2023-04-24T05:23:15;36.00;12.60
38995;DHT22;24769;18.712;99.000;2023-04-24T05:25:42;36.20;11.20
38995;DHT22;24769;18.712;99.000;2023-04-24T05:28:08;36.00;11.60
38995;DHT22;24769;18.712;99.000;2023-04-24T05:30:35;36.70;12.00
38995;DHT22;24769;18.712;99.000;2023-04-24T05:33:04;36.20;10.90
38995;DHT22;24769;18.712;99.000;2023-04-24T05:35:31;36.50;12.20
38995;DHT22;24769;18.712;99.000;2023-04-24T05:37:57;36.70;11.60
38995;DHT22;24769;18.712;99.000;2023-04-24T05:40:24;36.60;11.00
38995;DHT22;24769;18.712;99.000;2023-04-24T05:42:51;36.50;10.60
38995;DHT22;24769;18.712;99.000;2023-04-24T05:45:17;36.20;10.50
38995;DHT22;24769;18.712;99.000;2023-04-24T05:47:44;36.00;10.70
38995;DHT22;24769;18.712;99.000;2023-04-24T05:50:11;35.80;11.70
38995;DHT22;24769;18.712;99.000;2023-04-24T05:52:38;36.10;11.30
38995;DHT22;24769;18.712;99.000;2023-04-24T05:55:05;36.20;11.10
38995;DHT22;24769;18.712;99.000;2023-04-24T05:57:32;36.40;10.30
38995;DHT22;24769;18.712;99.000;2023-04-24T05:59:59;36.40;10.70
38995;DHT22;24769;18.712;99.000;2023-04-24T06:02:25;36.60;11.90
38995;DHT22;24769;18.712;99.000;2023-04-24T06:04:53;36.80;10.10
38995;DHT22;24769;18.712;99.000;2023-04-24T06:07:20;36.70;9.80
38995;DHT22;24769;18.712;99.000;2023-04-24T06:09:47;37.00;10.20
38995;DHT22;24769;18.712;99.000;2023-04-24T06:12:13;36.80;8.90
38995;DHT22;24769;18.712;99.000;2023-04-24T06:14:40;36.70;8.50
38995;DHT22;24769;18.712;99.000;2023-04-24T06:17:07;36.60;9.20
38995;DHT22;24769;18.712;99.000;2023-04-24T06:19:33;36.90;8.60
38995;DHT22;24769;18.712;99.000;2023-04-24T06:22:00;36.90;9.60
38995;DHT22;24769;18.712;99.000;2023-04-24T06:24:30;37.40;9.90
38995;DHT22;24769;18.712;99.000;2023-04-24T06:26:57;37.50;9.30
38995;DHT22;24769;18.712;99.000;2023-04-24T06:29:25;37.50;10.50
38995;DHT22;24769;18.712;99.000;2023-04-24T06:31:51;37.10;8.80
38995;DHT22;24769;18.712;99.000;2023-04-24T06:34:18;36.70;8.80
38995;DHT22;24769;18.712;99.000;2023-04-24T06:36:46;36.90;9.40
38995;DHT22;24769;18.712;99.000;2023-04-24T06:39:12;36.30;8.60
38995;DHT22;24769;18.712;99.000;2023-04-24T06:41:39;35.80;10.20
38995;DHT22;24769;18.712;99.000;2023-04-24T06:44:06;36.00;10.40
38995;DHT22;24769;18.712;99.000;2023-04-24T06:46:33;36.30;9.20
38995;DHT22;24769;18.712;99.000;2023-04-24T06:49:00;36.30;10.30
38995;DHT22;24769;18.712;99.000;2023-04-24T06:51:27;36.90;9.00
38995;DHT22;24769;18.712;99.000;2023-04-24T06:53:54;36.80;8.30
38995;DHT22;24769;18.712;99.000;2023-04-24T06:56:25;37.00;10.20
38995;DHT22;24769;18.712;99.000;2023-04-24T06:58:51;37.30;9.70
38995;DHT22;24769;18.712;99.000;2023-04-24T07:01:19;37.30;8.90
38995;DHT22;24769;18.712;99.000;2023-04-24T07:03:46;37.30;9.60
38995;DHT22;24769;18.712;99.000;2023-04-24T07:06:12;37.10;9.10
38995;DHT22;24769;18.712;99.000;2023-04-24T07:08:39;36.80;7.30
38995;DHT22;24769;18.712;99.000;2023-04-24T07:11:08;36.60;8.50
38995;DHT22;24769;18.712;99.000;2023-04-24T07:13:34;37.10;9.50
38995;DHT22;24769;18.712;99.000;2023-04-24T07:16:01;37.30;8.50
38995;DHT22;24769;18.712;99.000;2023-04-24T07:18:28;37.20;7.40
38995;DHT22;24769;18.712;99.000;2023-04-24T07:20:54;36.70;7.60
38995;DHT22;24769;18.712;99.000;2023-04-24T07:23:21;36.70;6.80
38995;DHT22;24769;18.712;99.000;2023-04-24T07:25:48;36.90;8.10
38995;DHT22;24769;18.712;99.000;2023-04-24T07:28:14;36.90;7.60
38995;DHT22;24769;18.712;99.000;2023-04-24T07:30:41;37.10;7.90
38995;DHT22;24769;18.712;99.000;2023-04-24T07:33:08;37.30;7.50
38995;DHT22;24769;18.712;99.000;2023-04-24T07:35:37;37.20;7.20
38995;DHT22;24769;18.712;99.000;2023-04-24T07:38:04;37.40;8.30
38995;DHT22;24769;18.712;99.000;2023-04-24T07:40:30;37.20;6.90
38995;DHT22;24769;18.712;99.000;2023-04-24T07:42:57;36.80;7.10
38995;DHT22;24769;18.712;99.000;2023-04-24T07:45:24;37.30;7.20
38995;DHT22;24769;18.712;99.000;2023-04-24T07:47:52;37.10;7.10
38995;DHT22;24769;18.712;99.000;2023-04-24T07:50:19;37.20;7.60
38995;DHT22;24769;18.712;99.000;2023-04-24T07:52:45;37.30;7.70
38995;DHT22;24769;18.712;99.000;2023-04-24T07:55:12;37.10;7.40
38995;DHT22;24769;18.712;99.000;2023-04-24T07:57:39;37.40;8.00
38995;DHT22;24769;18.712;99.000;2023-04-24T08:00:06;37.30;7.30
38995;DHT22;24769;18.712;99.000;2023-04-24T08:02:33;36.90;7.20
38995;DHT22;24769;18.712;99.000;2023-04-24T08:05:00;37.10;7.60
38995;DHT22;24769;18.712;99.000;2023-04-24T08:07:28;37.40;6.90
38995;DHT22;24769;18.712;99.000;2023-04-24T08:09:55;37.40;7.50
38995;DHT22;24769;18.712;99.000;2023-04-24T08:12:23;37.30;7.60
38995;DHT22;24769;18.712;99.000;2023-04-24T08:14:49;37.00;6.60
38995;DHT22;24769;18.712;99.000;2023-04-24T08:17:17;37.00;6.60
38995;DHT22;24769;18.712;99.000;2023-04-24T08:19:43;36.80;6.80
38995;DHT22;24769;18.712;99.000;2023-04-24T08:22:15;36.90;6.40
38995;DHT22;24769;18.712;99.000;2023-04-24T08:24:41;37.00;6.70
38995;DHT22;24769;18.712;99.000;2023-04-24T08:27:09;37.10;7.30
38995;DHT22;24769;18.712;99.000;2023-04-24T08:29:36;37.00;6.70
38995;DHT22;24769;18.712;99.000;2023-04-24T08:32:03;36.80;6.80
38995;DHT22;24769;18.712;99.000;2023-04-24T08:34:29;37.00;6.20
38995;DHT22;24769;18.712;99.000;2023-04-24T08:36:56;37.20;6.80
38995;DHT22;24769;18.712;99.000;2023-04-24T08:39:22;37.20;7.10
38995;DHT22;24769;18.712;99.000;2023-04-24T08:41:49;36.90;5.30
38995;DHT22;24769;18.712;99.000;2023-04-24T08:44:17;36.80;5.90
38995;DHT22;24769;18.712;99.000;2023-04-24T08:46:44;36.80;5.90
38995;DHT22;24769;18.712;99.000;2023-04-24T08:49:14;36.90;7.00
38995;DHT22;24769;18.712;99.000;2023-04-24T08:51:45;37.00;6.40
38995;DHT22;24769;18.712;99.000;2023-04-24T08:54:15;37.00;6.20
38995;DHT22;24769;18.712;99.000;2023-04-24T08:56:44;37.00;7.50
38995;DHT22;24769;18.712;99.000;2023-04-24T08:59:11;37.10;6.90
38995;DHT22;24769;18.712;99.000;2023-04-24T09:01:40;36.90;7.00
38995;DHT22;24769;18.712;99.000;2023-04-24T09:04:08;36.80;6.60
38995;DHT22;24769;18.712;99.000;2023-04-24T09:06:39;36.80;7.60
38995;DHT22;24769;18.712;99.000;2023-04-24T09:09:06;36.90;7.80
38995;DHT22;24769;18.712;99.000;2023-04-24T09:11:34;36.80;6.50
38995;DHT22;24769;18.712;99.000;2023-04-24T09:14:01;36.60;5.30
38995;DHT22;24769;18.712;99.000;2023-04-24T09:16:27;36.50;6.40
38995;DHT22;24769;18.712;99.000;2023-04-24T09:18:55;36.50;6.60
38995;DHT22;24769;18.712;99.000;2023-04-24T09:21:22;36.30;6.20
38995;DHT22;24769;18.712;99.000;2023-04-24T09:24:03;36.40;7.20
38995;DHT22;24769;18.712;99.000;2023-04-24T09:26:31;36.50;8.50
38995;DHT22;24769;18.712;99.000;2023-04-24T09:29:01;36.50;7.10
38995;DHT22;24769;18.712;99.000;2023-04-24T09:31:29;36.30;6.40
38995;DHT22;24769;18.712;99.000;2023-04-24T09:34:00;36.40;6.60
38995;DHT22;24769;18.712;99.000;2023-04-24T09:36:31;36.30;7.30
38995;DHT22;24769;18.712;99.000;2023-04-24T09:39:04;36.30;7.10
38995;DHT22;24769;18.712;99.000;2023-04-24T09:41:32;36.20;6.70
38995;DHT22;24769;18.712;99.000;2023-04-24T09:44:13;36.30;7.70
38995;DHT22;24769;18.712;99.000;2023-04-24T09:46:43;36.20;7.20
38995;DHT22;24769;18.712;99.000;2023-04-24T09:49:15;36.10;6.70
38995;DHT22;24769;18.712;99.000;2023-04-24T09:51:42;36.00;7.10
38995;DHT22;24769;18.712;99.000;2023-04-24T09:54:18;36.00;7.80
38995;DHT22;24769;18.712;99.000;2023-04-24T09:56:49;35.90;10.10
38995;DHT22;24769;18.712;99.000;2023-04-24T09:59:18;35.90;7.50
38995;DHT22;24769;18.712;99.000;2023-04-24T10:01:45;35.80;7.40
38995;DHT22;24769;18.712;99.000;2023-04-24T10:04:18;35.60;7.10
38995;DHT22;24769;18.712;99.000;2023-04-24T10:06:49;35.70;7.70
38995;DHT22;24769;18.712;99.000;2023-04-24T10:09:17;35.70;9.30
38995;DHT22;24769;18.712;99.000;2023-04-24T10:11:46;35.60;12.00
38995;DHT22;24769;18.712;99.000;2023-04-24T10:14:20;35.40;10.80
38995;DHT22;24769;18.712;99.000;2023-04-24T10:16:47;35.30;10.10
38995;DHT22;24769;18.712;99.000;2023-04-24T10:19:16;35.30;10.60
38995;DHT22;24769;18.712;99.000;2023-04-24T10:21:44;35.20;11.00
38995;DHT22;24769;18.712;99.000;2023-04-24T10:24:18;35.00;11.40
38995;DHT22;24769;18.712;99.000;2023-04-24T10:26:47;35.00;11.70
38995;DHT22;24769;18.712;99.000;2023-04-24T10:29:18;34.90;11.30
38995;DHT22;24769;18.712;99.000;2023-04-24T10:31:45;34.90;9.70
38995;DHT22;24769;18.712;99.000;2023-04-24T10:34:13;34.80;11.50
38995;DHT22;24769;18.712;99.000;2023-04-24T10:36:46;34.70;12.40
38995;DHT22;24769;18.712;99.000;2023-04-24T10:39:14;34.70;10.90
38995;DHT22;24769;18.712;99.000;2023-04-24T10:41:42;34.60;12.80
38995;DHT22;24769;18.712;99.000;2023-04-24T10:44:15;34.50;11.40
38995;DHT22;24769;18.712;99.000;2023-04-24T10:46:46;34.40;12.30
38995;DHT22;24769;18.712;99.000;2023-04-24T10:49:16;34.40;11.70
38995;DHT22;24769;18.712;99.000;2023-04-24T10:51:49;34.30;11.20
38995;DHT22;24769;18.712;99.000;2023-04-24T10:54:23;34.30;11.50
38995;DHT22;24769;18.712;99.000;2023-04-24T10:56:51;34.20;12.10
38995;DHT22;24769;18.712;99.000;2023-04-24T10:59:25;34.10;12.20
38995;DHT22;24769;18.712;99.000;2023-04-24T11:01:53;33.90;14.00
38995;DHT22;24769;18.712;99.000;2023-04-24T11:04:31;33.70;14.10
38995;DHT22;24769;18.712;99.000;2023-04-24T11:06:58;33.60;14.90
38995;DHT22;24769;18.712;99.000;2023-04-24T11:09:31;33.50;15.10
38995;DHT22;24769;18.712;99.000;2023-04-24T11:12:10;33.40;14.40
38995;DHT22;24769;18.712;99.000;2023-04-24T11:17:37;33.10;16.70
38995;DHT22;24769;18.712;99.000;2023-04-24T11:20:10;33.00;18.40
38995;DHT22;24769;18.712;99.000;2023-04-24T11:22:39;32.90;18.80
38995;DHT22;24769;18.712;99.000;2023-04-24T11:25:09;32.70;21.00
38995;DHT22;24769;18.712;99.000;2023-04-24T11:27:44;32.50;21.60
38995;DHT22;24769;18.712;99.000;2023-04-24T11:30:19;32.20;22.70
38995;DHT22;24769;18.712;99.000;2023-04-24T11:32:51;32.10;23.60
38995;DHT22;24769;18.712;99.000;2023-04-24T11:37:51;31.80;24.70
38995;DHT22;24769;18.712;99.000;2023-04-24T11:40:20;31.70;26.30
38995;DHT22;24769;18.712;99.000;2023-04-24T11:42:51;31.70;27.00
38995;DHT22;24769;18.712;99.000;2023-04-24T11:45:21;31.60;26.20
38995;DHT22;24769;18.712;99.000;2023-04-24T11:47:48;31.60;25.10
38995;DHT22;24769;18.712;99.000;2023-04-24T11:50:17;31.40;26.10
38995;DHT22;24769;18.712;99.000;2023-04-24T11:52:46;31.30;26.70
38995;DHT22;24769;18.712;99.000;2023-04-24T11:57:44;31.00;29.60
38995;DHT22;24769;18.712;99.000;2023-04-24T12:00:27;31.10;29.70
38995;DHT22;24769;18.712;99.000;2023-04-24T12:03:10;31.00;29.30
38995;DHT22;24769;18.712;99.000;2023-04-24T12:05:38;30.90;29.20
38995;DHT22;24769;18.712;99.000;2023-04-24T12:08:05;30.80;30.70
38995;DHT22;24769;18.712;99.000;2023-04-24T12:10:33;30.70;30.50
38995;DHT22;24769;18.712;99.000;2023-04-24T12:13:00;30.50;32.50
38995;DHT22;24769;18.712;99.000;2023-04-24T12:15:27;30.30;33.30
38995;DHT22;24769;18.712;99.000;2023-04-24T12:17:55;30.30;34.50
38995;DHT22;24769;18.712;99.000;2023-04-24T12:20:30;30.10;34.70
38995;DHT22;24769;18.712;99.000;2023-04-24T12:23:34;30.10;36.40
38995;DHT22;24769;18.712;99.000;2023-04-24T12:26:07;30.20;33.60
38995;DHT22;24769;18.712;99.000;2023-04-24T12:28:38;30.10;33.60
38995;DHT22;24769;18.712;99.000;2023-04-24T12:31:06;30.10;33.80
38995;DHT22;24769;18.712;99.000;2023-04-24T12:33:34;30.00;34.70
38995;DHT22;24769;18.712;99.000;2023-04-24T12:36:02;30.00;35.60
38995;DHT22;24769;18.712;99.000;2023-04-24T12:38:29;29.80;36.70
38995;DHT22;24769;18.712;99.000;2023-04-24T12:41:08;29.70;36.70
38995;DHT22;24769;18.712;99.000;2023-04-24T12:43:36;29.70;37.60
38995;DHT22;24769;18.712;99.000;2023-04-24T12:46:03;29.60;38.20
38995;DHT22;24769;18.712;99.000;2023-04-24T12:48:30;29.60;38.80
38995;DHT22;24769;18.712;99.000;2023-04-24T12:50:58;29.60;40.00
38995;DHT22;24769;18.712;99.000;2023-04-24T12:53:27;29.50;40.90
38995;DHT22;24769;18.712;99.000;2023-04-24T12:55:55;29.40;42.60
38995;DHT22;24769;18.712;99.000;2023-04-24T12:58:22;29.40;43.50
38995;DHT22;24769;18.712;99.000;2023-04-24T13:00:49;29.30;41.90
38995;DHT22;24769;18.712;99.000;2023-04-24T13:03:15;29.40;42.30
38995;DHT22;24769;18.712;99.000;2023-04-24T13:05:43;29.40;43.80
38995;DHT22;24769;18.712;99.000;2023-04-24T13:08:09;29.40;43.50
38995;DHT22;24769;18.712;99.000;2023-04-24T13:10:36;29.40;44.00
38995;DHT22;24769;18.712;99.000;2023-04-24T13:13:03;29.30;43.90
38995;DHT22;24769;18.712;99.000;2023-04-24T13:15:29;29.30;44.60
38995;DHT22;24769;18.712;99.000;2023-04-24T13:17:56;29.20;45.80
38995;DHT22;24769;18.712;99.000;2023-04-24T13:20:23;29.10;46.80
38995;DHT22;24769;18.712;99.000;2023-04-24T13:22:49;29.10;46.70
38995;DHT22;24769;18.712;99.000;2023-04-24T13:25:16;29.10;46.80
38995;DHT22;24769;18.712;99.000;2023-04-24T13:27:43;29.00;46.80
38995;DHT22;24769;18.712;99.000;2023-04-24T13:30:10;28.90;47.70
38995;DHT22;24769;18.712;99.000;2023-04-24T13:32:37;28.90;48.10
38995;DHT22;24769;18.712;99.000;2023-04-24T13:35:04;28.90;48.30
38995;DHT22;24769;18.712;99.000;2023-04-24T13:37:30;29.00;50.50
38995;DHT22;24769;18.712;99.000;2023-04-24T13:39:57;29.10;48.90
38995;DHT22;24769;18.712;99.000;2023-04-24T13:42:23;29.30;48.10
38995;DHT22;24769;18.712;99.000;2023-04-24T13:44:50;29.40;47.60
38995;DHT22;24769;18.712;99.000;2023-04-24T13:47:17;29.50;46.90
38995;DHT22;24769;18.712;99.000;2023-04-24T13:49:43;29.60;46.30
38995;DHT22;24769;18.712;99.000;2023-04-24T13:52:10;29.50;45.80
38995;DHT22;24769;18.712;99.000;2023-04-24T13:54:36;29.30;47.40
38995;DHT22;24769;18.712;99.000;2023-04-24T13:57:03;29.20;47.90
38995;DHT22;24769;18.712;99.000;2023-04-24T13:59:30;29.30;48.20
38995;DHT22;24769;18.712;99.000;2023-04-24T14:01:56;29.10;49.00
38995;DHT22;24769;18.712;99.000;2023-04-24T14:04:23;29.30;48.80
38995;DHT22;24769;18.712;99.000;2023-04-24T14:06:49;29.30;48.00
38995;DHT22;24769;18.712;99.000;2023-04-24T14:09:16;29.10;49.40
38995;DHT22;24769;18.712;99.000;2023-04-24T14:11:43;29.00;49.90
38995;DHT22;24769;18.712;99.000;2023-04-24T14:14:09;29.10;50.40
38995;DHT22;24769;18.712;99.000;2023-04-24T14:16:36;29.00;51.40
38995;DHT22;24769;18.712;99.000;2023-04-24T14:19:03;28.90;50.30
38995;DHT22;24769;18.712;99.000;2023-04-24T14:21:32;29.00;49.60
38995;DHT22;24769;18.712;99.000;2023-04-24T14:23:58;29.40;45.40
38995;DHT22;24769;18.712;99.000;2023-04-24T14:26:25;29.70;44.40
38995;DHT22;24769;18.712;99.000;2023-04-24T14:28:51;29.60;45.50
38995;DHT22;24769;18.712;99.000;2023-04-24T14:31:19;29.50;45.30
38995;DHT22;24769;18.712;99.000;2023-04-24T14:33:46;29.50;45.20
38995;DHT22;24769;18.712;99.000;2023-04-24T14:36:12;29.50;45.10
38995;DHT22;24769;18.712;99.000;2023-04-24T14:38:39;29.50;45.30
38995;DHT22;24769;18.712;99.000;2023-04-24T14:41:05;29.50;45.50
38995;DHT22;24769;18.712;99.000;2023-04-24T14:43:35;29.50;47.00
38995;DHT22;24769;18.712;99.000;2023-04-24T14:46:03;29.30;48.60
38995;DHT22;24769;18.712;99.000;2023-04-24T14:48:29;29.30;49.70
38995;DHT22;24769;18.712;99.000;2023-04-24T14:50:56;29.10;50.40
38995;DHT22;24769;18.712;99.000;2023-04-24T14:53:23;29.20;50.80
38995;DHT22;24769;18.712;99.000;2023-04-24T14:55:49;29.10;51.70
38995;DHT22;24769;18.712;99.000;2023-04-24T14:58:16;29.10;52.00
38995;DHT22;24769;18.712;99.000;2023-04-24T15:00:42;28.90;54.70
38995;DHT22;24769;18.712;99.000;2023-04-24T15:03:09;28.80;55.20
38995;DHT22;24769;18.712;99.000;2023-04-24T15:05:35;28.70;54.40
38995;DHT22;24769;18.712;99.000;2023-04-24T15:08:02;28.70;55.50
38995;DHT22;24769;18.712;99.000;2023-04-24T15:10:29;28.60;55.50
38995;DHT22;24769;18.712;99.000;2023-04-24T15:12:55;28.60;56.60
38995;DHT22;24769;18.712;99.000;2023-04-24T15:15:22;28.60;57.20
38995;DHT22;24769;18.712;99.000;2023-04-24T15:17:49;28.60;56.70
38995;DHT22;24769;18.712;99.000;2023-04-24T15:20:15;28.50;57.70
38995;DHT22;24769;18.712;99.000;2023-04-24T15:22:42;28.40;60.90
38995;DHT22;24769;18.712;99.000;2023-04-24T15:25:09;28.40;61.60
38995;DHT22;24769;18.712;99.000;2023-04-24T15:27:43;28.40;61.60
38995;DHT22;24769;18.712;99.000;2023-04-24T15:30:10;28.30;60.50
38995;DHT22;24769;18.712;99.000;2023-04-24T15:32:38;28.30;60.00